createdAt,value
2023-01-28T00:00:47.721Z,102480.63
2023-01-28T00:03:15.908Z,102478.00
2023-01-28T00:05:42.961Z,102473.63
2023-01-28T00:08:10.137Z,102474.47
2023-01-28T00:10:39.521Z,102473.56
2023-01-28T00:13:07.115Z,102481.47
2023-01-28T00:15:33.544Z,102481.47
2023-01-28T00:18:00.358Z,102478.00
2023-01-28T00:20:26.716Z,102481.44
2023-01-28T00:22:53.050Z,102477.97
2023-01-28T00:25:19.613Z,102485.91
2023-01-28T00:27:46.081Z,102493.84
2023-01-28T00:30:12.875Z,102485.91
2023-01-28T00:32:39.229Z,102488.56
2023-01-28T00:35:05.976Z,102486.81
2023-01-28T00:37:32.653Z,102487.69
2023-01-28T00:39:58.981Z,102486.84
2023-01-28T00:42:25.464Z,102482.47
2023-01-28T00:44:55.042Z,102484.22
2023-01-28T00:47:21.946Z,102488.63
2023-01-28T00:49:48.276Z,102483.34
2023-01-28T00:52:14.739Z,102490.38
2023-01-28T00:54:41.111Z,102493.94
2023-01-28T00:57:07.954Z,102493.03
2023-01-28T00:59:34.288Z,102501.88
2023-01-28T01:02:12.276Z,102492.22
2023-01-28T01:04:39.934Z,102495.66
2023-01-28T01:07:06.975Z,102494.75
2023-01-28T01:09:33.310Z,102495.69
2023-01-28T01:11:59.834Z,102491.28
2023-01-28T01:14:26.157Z,102497.50
2023-01-28T01:16:52.484Z,102494.00
2023-01-28T01:19:18.810Z,102496.59
2023-01-28T01:21:50.247Z,102481.69
2023-01-28T01:24:16.838Z,102486.06
2023-01-28T01:26:43.270Z,102494.03
2023-01-28T01:29:09.792Z,102494.06
2023-01-28T01:31:36.248Z,102504.63
2023-01-28T01:34:02.636Z,102512.53
2023-01-28T01:36:29.066Z,102518.69
2023-01-28T01:38:56.416Z,102516.94
2023-01-28T01:41:31.971Z,102520.44
2023-01-28T01:44:03.699Z,102508.16
2023-01-28T01:46:38.189Z,102516.06
2023-01-28T01:49:24.831Z,102523.09
2023-01-28T01:51:57.763Z,102512.53
2023-01-28T01:54:28.390Z,102522.22
2023-01-28T01:56:58.481Z,102523.97
2023-01-28T01:59:32.126Z,102517.84
2023-01-28T02:02:03.349Z,102519.63
2023-01-28T02:04:35.432Z,102523.09
2023-01-28T02:07:02.622Z,102522.25
2023-01-28T02:09:36.077Z,102520.47
2023-01-28T02:12:08.426Z,102522.25
2023-01-28T02:14:41.079Z,102529.31
2023-01-28T02:17:08.896Z,102536.38
2023-01-28T02:19:40.721Z,102540.75
2023-01-28T02:22:49.193Z,102538.09
2023-01-28T02:25:34.628Z,102536.34
2023-01-28T02:28:27.715Z,102536.38
2023-01-28T02:31:01.015Z,102521.41
2023-01-28T02:33:35.858Z,102526.66
2023-01-28T02:36:12.462Z,102525.78
2023-01-28T02:38:46.586Z,102528.44
2023-01-28T02:41:20.806Z,102527.59
2023-01-28T02:43:48.205Z,102535.47
2023-01-28T02:46:45.474Z,102536.38
2023-01-28T02:49:16.351Z,102533.75
2023-01-28T02:52:00.918Z,102536.34
2023-01-28T02:54:52.050Z,102535.47
2023-01-28T02:57:42.944Z,102528.44
2023-01-28T03:00:25.853Z,102531.09
2023-01-28T03:03:02.147Z,102524.03
2023-01-28T03:05:37.717Z,102517.91
2023-01-28T03:08:26.707Z,102521.44
2023-01-28T03:11:15.020Z,102524.91
2023-01-28T03:14:02.670Z,102520.50
2023-01-28T03:16:51.119Z,102515.28
2023-01-28T03:19:36.915Z,102514.41
2023-01-28T03:22:22.885Z,102521.44
2023-01-28T03:25:11.703Z,102503.88
2023-01-28T03:28:09.725Z,102504.72
2023-01-28T03:31:13.777Z,102509.13
2023-01-28T03:34:06.187Z,102511.75
2023-01-28T03:36:51.280Z,102516.13
2023-01-28T03:39:37.163Z,102520.53
2023-01-28T03:42:11.211Z,102521.38
2023-01-28T03:44:51.880Z,102519.63
2023-01-28T03:47:27.241Z,102527.53
2023-01-28T03:49:55.808Z,102538.09
2023-01-28T03:52:31.815Z,102533.72
2023-01-28T03:55:15.976Z,102527.59
2023-01-28T03:57:44.643Z,102531.97
2023-01-28T04:00:12.500Z,102529.34
2023-01-28T04:02:41.851Z,102537.25
2023-01-28T04:05:12.835Z,102534.63
2023-01-28T04:07:44.785Z,102539.00
2023-01-28T04:10:39.130Z,102539.88
2023-01-28T04:13:13.518Z,102537.25
2023-01-28T04:15:40.264Z,102534.59
2023-01-28T04:18:09.848Z,102543.41
2023-01-28T04:20:37.846Z,102539.03
2023-01-28T04:23:04.902Z,102546.91
2023-01-28T04:25:32.070Z,102551.31
2023-01-28T04:27:59.040Z,102557.50
2023-01-28T04:30:28.519Z,102554.00
2023-01-28T04:33:06.581Z,102559.25
2023-01-28T04:35:51.062Z,102561.03
2023-01-28T04:38:24.216Z,102552.22
2023-01-28T04:41:00.125Z,102546.06
2023-01-28T04:43:30.344Z,102554.84
2023-01-28T04:46:19.403Z,102558.41
2023-01-28T04:48:55.381Z,102556.63
2023-01-28T04:51:39.267Z,102541.69
2023-01-28T04:54:11.537Z,102547.81
2023-01-28T04:56:37.929Z,102543.44
2023-01-28T04:59:04.510Z,102544.31
2023-01-28T05:01:32.219Z,102549.59
2023-01-28T05:03:59.551Z,102536.41
2023-01-28T05:06:27.687Z,102539.06
2023-01-28T05:08:56.434Z,102544.38
2023-01-28T05:11:22.814Z,102547.84
2023-01-28T05:13:54.909Z,102544.34
2023-01-28T05:16:21.333Z,102541.72
2023-01-28T05:18:48.031Z,102544.34
2023-01-28T05:21:16.305Z,102541.72
2023-01-28T05:23:44.036Z,102550.50
2023-01-28T05:26:10.628Z,102550.50
2023-01-28T05:28:38.030Z,102553.13
2023-01-28T05:31:07.553Z,102549.63
2023-01-28T05:33:34.392Z,102552.28
2023-01-28T05:36:02.156Z,102548.75
2023-01-28T05:38:28.581Z,102549.63
2023-01-28T05:40:55.025Z,102552.25
2023-01-28T05:43:22.088Z,102558.41
2023-01-28T05:46:08.620Z,102567.22
2023-01-28T05:48:54.925Z,102567.22
2023-01-28T05:51:36.127Z,102573.38
2023-01-28T05:54:03.288Z,102583.94
2023-01-28T05:56:30.352Z,102584.81
2023-01-28T05:58:56.713Z,102583.03
2023-01-28T06:01:23.234Z,102575.13
2023-01-28T06:03:53.535Z,102571.63
2023-01-28T06:06:20.028Z,102575.13
2023-01-28T06:08:46.801Z,102571.63
2023-01-28T06:11:19.962Z,102570.75
2023-01-28T06:13:47.079Z,102569.00
2023-01-28T06:16:42.593Z,102582.16
2023-01-28T06:19:28.153Z,102570.75
2023-01-28T06:21:55.139Z,102572.47
2023-01-28T06:24:21.581Z,102569.88
2023-01-28T06:26:48.157Z,102570.75
2023-01-28T06:29:15.031Z,102575.13
2023-01-28T06:31:41.482Z,102577.78
2023-01-28T06:34:09.831Z,102580.41
2023-01-28T06:36:37.981Z,102583.91
2023-01-28T06:39:04.673Z,102579.53
2023-01-28T06:41:30.978Z,102573.38
2023-01-28T06:43:57.550Z,102573.38
2023-01-28T06:46:24.774Z,102580.41
2023-01-28T06:48:51.433Z,102571.63
2023-01-28T06:51:17.747Z,102570.75
2023-01-28T06:53:45.971Z,102571.59
2023-01-28T06:56:12.494Z,102581.28
2023-01-28T06:58:38.815Z,102570.72
2023-01-28T07:01:10.115Z,102574.25
2023-01-28T07:03:37.063Z,102577.78
2023-01-28T07:06:03.605Z,102579.53
2023-01-28T07:08:29.954Z,102575.13
2023-01-28T07:10:56.277Z,102581.25
2023-01-28T07:13:22.608Z,102575.13
2023-01-28T07:15:49.632Z,102580.41
2023-01-28T07:18:16.160Z,102582.16
2023-01-28T07:20:42.484Z,102584.78
2023-01-28T07:23:08.807Z,102582.16
2023-01-28T07:25:35.222Z,102585.66
2023-01-28T07:28:01.590Z,102585.66
2023-01-28T07:30:28.024Z,102590.06
2023-01-28T07:32:59.006Z,102588.28
2023-01-28T07:35:26.251Z,102586.53
2023-01-28T07:37:56.874Z,102585.66
2023-01-28T07:40:24.494Z,102579.50
2023-01-28T07:42:52.073Z,102580.38
2023-01-28T07:45:22.340Z,102589.19
2023-01-28T07:48:00.249Z,102593.56
2023-01-28T07:50:29.111Z,102604.09
2023-01-28T07:52:56.786Z,102602.34
2023-01-28T07:55:23.735Z,102600.59
2023-01-28T07:57:55.490Z,102604.13
2023-01-28T08:00:23.365Z,102606.75
2023-01-28T08:02:50.433Z,102608.50
2023-01-28T08:05:21.370Z,102612.91
2023-01-28T08:07:48.779Z,102615.53
2023-01-28T08:10:19.093Z,102607.63
2023-01-28T08:12:59.043Z,102610.28
2023-01-28T08:15:26.124Z,102612.03
2023-01-28T08:17:59.367Z,102612.03
2023-01-28T08:20:27.312Z,102617.28
2023-01-28T08:22:54.351Z,102628.69
2023-01-28T08:25:21.080Z,102626.06
2023-01-28T08:27:47.436Z,102630.47
2023-01-28T08:30:14.240Z,102634.88
2023-01-28T08:32:40.774Z,102648.03
2023-01-28T08:35:07.775Z,102641.91
2023-01-28T08:37:34.179Z,102641.91
2023-01-28T08:40:00.703Z,102655.97
2023-01-28T08:42:27.066Z,102677.06
2023-01-28T08:44:53.406Z,102670.03
2023-01-28T08:47:20.243Z,102677.06
2023-01-28T08:49:46.578Z,102688.47
2023-01-28T08:52:12.914Z,102685.84
2023-01-28T08:54:39.232Z,102695.50
2023-01-28T08:57:05.616Z,102703.41
2023-01-28T08:59:31.920Z,102699.03
2023-01-28T09:01:58.577Z,102699.91
2023-01-28T09:04:24.925Z,102701.69
2023-01-28T09:06:51.279Z,102704.31
2023-01-28T09:09:17.705Z,102711.31
2023-01-28T09:11:44.127Z,102712.22
2023-01-28T09:14:10.433Z,102708.72
2023-01-28T09:16:36.766Z,102708.72
2023-01-28T09:19:03.112Z,102722.78
2023-01-28T09:21:29.494Z,102714.00
2023-01-28T09:23:56.749Z,102701.69
2023-01-28T09:26:23.084Z,102721.91
2023-01-28T09:28:49.406Z,102712.22
2023-01-28T09:31:15.844Z,102730.72
2023-01-28T09:33:42.263Z,102722.78
2023-01-28T09:36:11.341Z,102724.53
2023-01-28T09:38:37.769Z,102725.44
2023-01-28T09:41:21.418Z,102734.22
2023-01-28T09:44:10.967Z,102730.72
2023-01-28T09:46:38.375Z,102734.22
2023-01-28T09:49:20.048Z,102733.34
2023-01-28T09:51:53.747Z,102731.56
2023-01-28T09:54:44.178Z,102728.94
2023-01-28T09:57:20.671Z,102732.47
2023-01-28T09:59:47.244Z,102730.69
2023-01-28T10:02:44.392Z,102735.09
2023-01-28T10:05:20.216Z,102734.25
2023-01-28T10:08:05.734Z,102721.91
2023-01-28T10:10:41.986Z,102737.75
2023-01-28T10:13:37.845Z,102732.47
2023-01-28T10:16:09.137Z,102728.94
2023-01-28T10:18:43.598Z,102724.53
2023-01-28T10:21:16.716Z,102717.50
2023-01-28T10:24:04.790Z,102714.88
2023-01-28T10:26:36.390Z,102699.03
2023-01-28T10:29:19.503Z,102699.06
2023-01-28T10:31:55.076Z,102700.81
2023-01-28T10:34:22.623Z,102706.09
2023-01-28T10:36:50.299Z,102706.97
2023-01-28T10:39:19.795Z,102714.03
2023-01-28T10:41:57.453Z,102718.38
2023-01-28T10:44:42.226Z,102722.81
2023-01-28T10:47:14.479Z,102722.81
2023-01-28T10:49:56.223Z,102724.56
2023-01-28T10:52:22.564Z,102733.34
2023-01-28T10:54:59.433Z,102731.59
2023-01-28T10:57:25.840Z,102730.72
2023-01-28T10:59:52.242Z,102736.88
2023-01-28T11:02:26.491Z,102742.16
2023-01-28T11:05:02.921Z,102740.38
2023-01-28T11:07:29.312Z,102739.50
2023-01-28T11:09:55.650Z,102750.06
2023-01-28T11:12:27.640Z,102752.69
2023-01-28T11:15:02.514Z,102742.16
2023-01-28T11:17:32.683Z,102750.94
2023-01-28T11:20:01.698Z,102744.78
2023-01-28T11:22:34.105Z,102744.78
2023-01-28T11:25:04.697Z,102728.09
2023-01-28T11:27:32.554Z,102735.97
2023-01-28T11:30:04.496Z,102735.13
2023-01-28T11:32:31.255Z,102740.41
2023-01-28T11:34:58.218Z,102734.22
2023-01-28T11:37:27.305Z,102728.06
2023-01-28T11:40:23.563Z,102736.84
2023-01-28T11:42:52.261Z,102733.34
2023-01-28T11:45:23.393Z,102733.38
2023-01-28T11:48:06.541Z,102721.94
2023-01-28T11:51:09.302Z,102723.69
2023-01-28T11:53:58.557Z,102718.41
2023-01-28T11:57:01.744Z,102719.28
2023-01-28T11:59:49.602Z,102722.81
2023-01-28T12:03:10.197Z,102701.69
2023-01-28T12:05:50.116Z,102697.28
2023-01-28T12:08:28.340Z,102683.22
2023-01-28T12:11:20.795Z,102685.88
2023-01-28T12:14:12.571Z,102682.34
2023-01-28T12:17:06.561Z,102673.56
2023-01-28T12:19:46.601Z,102669.16
2023-01-28T12:22:22.739Z,102681.47
2023-01-28T12:24:54.867Z,102677.09
2023-01-28T12:27:50.919Z,102669.16
2023-01-28T12:30:42.820Z,102655.97
2023-01-28T12:33:33.306Z,102644.53
2023-01-28T12:36:43.109Z,102632.19
2023-01-28T12:39:47.993Z,102618.13
2023-01-28T12:42:23.207Z,102603.16
2023-01-28T12:44:59.742Z,102593.50
2023-01-28T12:47:36.272Z,102585.53
2023-01-28T12:50:14.550Z,102584.69
2023-01-28T12:52:47.120Z,102588.09
2023-01-28T12:55:28.902Z,102584.56
2023-01-28T12:57:58.586Z,102587.16
2023-01-28T13:00:33.523Z,102623.31
2023-01-28T13:03:18.918Z,102627.63
2023-01-28T13:05:56.935Z,102618.81
2023-01-28T13:08:25.586Z,102619.69
2023-01-28T13:10:53.664Z,102613.53
2023-01-28T13:13:29.719Z,102617.00
2023-01-28T13:15:56.553Z,102602.91
2023-01-28T13:18:45.215Z,102614.25
2023-01-28T13:21:34.636Z,102608.00
2023-01-28T13:24:09.289Z,102608.81
2023-01-28T13:26:42.256Z,102600.88
2023-01-28T13:29:14.827Z,102629.19
2023-01-28T13:31:53.466Z,102630.25
2023-01-28T13:34:59.768Z,102625.84
2023-01-28T13:37:44.141Z,102619.66
2023-01-28T13:40:13.459Z,102631.13
2023-01-28T13:42:41.024Z,102616.19
2023-01-28T13:45:23.094Z,102631.09
2023-01-28T13:48:02.280Z,102635.50
2023-01-28T13:50:39.302Z,102640.81
2023-01-28T13:53:28.228Z,102650.50
2023-01-28T13:55:58.736Z,102646.97
2023-01-28T13:58:49.283Z,102644.34
2023-01-28T14:01:34.506Z,102650.50
2023-01-28T14:04:31.244Z,102653.16
2023-01-28T14:07:22.168Z,102636.47
2023-01-28T14:10:03.384Z,102624.13
2023-01-28T14:12:56.178Z,102613.59
2023-01-28T14:15:33.636Z,102614.47
2023-01-28T14:18:00.152Z,102606.56
2023-01-28T14:20:37.512Z,102593.38
2023-01-28T14:23:06.151Z,102585.44
2023-01-28T14:25:47.489Z,102586.34
2023-01-28T14:28:21.337Z,102596.94
2023-01-28T14:30:53.504Z,102590.78
2023-01-28T14:33:22.332Z,102585.56
2023-01-28T14:35:49.763Z,102581.16
2023-01-28T14:38:21.784Z,102571.47
2023-01-28T14:40:53.389Z,102567.06
2023-01-28T14:43:23.687Z,102567.09
2023-01-28T14:46:19.507Z,102562.66
2023-01-28T14:49:17.205Z,102562.69
2023-01-28T14:52:08.809Z,102576.75
2023-01-28T14:54:38.176Z,102595.22
2023-01-28T14:57:19.531Z,102594.31
2023-01-28T14:59:54.162Z,102594.34
2023-01-28T15:02:28.993Z,102584.63
2023-01-28T15:05:07.824Z,102588.19
2023-01-28T15:07:34.134Z,102589.06
2023-01-28T15:10:06.840Z,102597.88
2023-01-28T15:12:37.527Z,102614.63
2023-01-28T15:15:40.349Z,102608.47
2023-01-28T15:18:26.614Z,102614.63
2023-01-28T15:20:55.084Z,102623.44
2023-01-28T15:23:40.319Z,102633.97
2023-01-28T15:26:12.227Z,102641.91
2023-01-28T15:28:39.850Z,102643.63
2023-01-28T15:31:07.051Z,102631.34
2023-01-28T15:33:33.563Z,102641.91
2023-01-28T15:36:00.199Z,102650.69
2023-01-28T15:38:28.741Z,102639.25
2023-01-28T15:41:00.713Z,102643.69
2023-01-28T15:43:33.166Z,102648.06
2023-01-28T15:46:00.508Z,102649.81
2023-01-28T15:48:30.834Z,102657.72
2023-01-28T15:50:59.953Z,102643.66
2023-01-28T15:53:28.210Z,102644.56
2023-01-28T15:56:14.549Z,102635.78
2023-01-28T15:58:41.792Z,102647.19
2023-01-28T16:01:08.210Z,102648.06
2023-01-28T16:03:36.961Z,102654.22
2023-01-28T16:06:09.577Z,102662.09
2023-01-28T16:08:40.689Z,102666.47
2023-01-28T16:11:09.509Z,102673.50
2023-01-28T16:13:42.684Z,102673.50
2023-01-28T16:16:10.260Z,102684.00
2023-01-28T16:18:43.268Z,102677.84
2023-01-28T16:21:12.625Z,102680.47
2023-01-28T16:23:39.904Z,102682.22
2023-01-28T16:26:21.135Z,102698.03
2023-01-28T16:28:47.553Z,102693.59
2023-01-28T16:31:14.200Z,102694.50
2023-01-28T16:33:40.619Z,102697.97
2023-01-28T16:36:10.897Z,102704.97
2023-01-28T16:38:37.248Z,102699.69
2023-01-28T16:41:03.789Z,102704.06
2023-01-28T16:43:30.476Z,102704.94
2023-01-28T16:45:56.848Z,102697.00
2023-01-28T16:48:23.301Z,102686.47
2023-01-28T16:50:49.762Z,102690.84
2023-01-28T16:53:20.968Z,102687.31
2023-01-28T16:55:50.742Z,102684.69
2023-01-28T16:58:21.434Z,102684.63
2023-01-28T17:00:47.808Z,102683.75
2023-01-28T17:03:14.248Z,102680.22
2023-01-28T17:05:40.646Z,102668.81
2023-01-28T17:08:07.281Z,102681.91
2023-01-28T17:10:33.961Z,102683.63
2023-01-28T17:13:00.350Z,102675.66
2023-01-28T17:15:26.694Z,102672.13
2023-01-28T17:17:53.582Z,102658.06
2023-01-28T17:20:19.972Z,102654.53
2023-01-28T17:22:46.359Z,102656.25
2023-01-28T17:25:14.511Z,102658.00
2023-01-28T17:27:41.154Z,102650.03
2023-01-28T17:30:08.109Z,102664.94
2023-01-28T17:32:34.482Z,102677.16
2023-01-28T17:35:01.123Z,102681.53
2023-01-28T17:37:27.438Z,102681.53
2023-01-28T17:39:53.746Z,102686.81
2023-01-28T17:42:20.069Z,102694.63
2023-01-28T17:44:46.430Z,102695.50
2023-01-28T17:47:12.772Z,102700.75
2023-01-28T17:49:39.096Z,102703.41
2023-01-28T17:52:05.677Z,102698.13
2023-01-28T17:54:32.105Z,102708.66
2023-01-28T17:56:58.547Z,102720.91
2023-01-28T17:59:25.868Z,102718.22
2023-01-28T18:01:54.449Z,102726.06
2023-01-28T18:04:20.823Z,102725.16
2023-01-28T18:06:49.004Z,102719.81
2023-01-28T18:09:15.384Z,102720.69
2023-01-28T18:11:41.719Z,102713.66
2023-01-28T18:14:08.147Z,102713.59
2023-01-28T18:16:34.489Z,102718.75
2023-01-28T18:19:00.842Z,102733.63
2023-01-28T18:21:51.722Z,102732.63
2023-01-28T18:24:19.959Z,102726.44
2023-01-28T18:26:46.417Z,102716.78
2023-01-28T18:29:16.617Z,102715.88
2023-01-28T18:31:43.186Z,102727.19
2023-01-28T18:34:09.621Z,102732.38
2023-01-28T18:36:35.944Z,102740.16
2023-01-28T18:39:02.290Z,102736.66
2023-01-28T18:41:28.625Z,102739.28
2023-01-28T18:43:54.945Z,102751.53
2023-01-28T18:46:21.328Z,102763.78
2023-01-28T18:48:47.722Z,102754.91
2023-01-28T18:51:28.818Z,102751.38
2023-01-28T18:53:59.758Z,102747.81
2023-01-28T18:56:27.716Z,102746.03
2023-01-28T18:59:03.321Z,102749.53
2023-01-28T19:01:31.321Z,102752.09
2023-01-28T19:03:58.353Z,102750.28
2023-01-28T19:06:27.065Z,102747.66
2023-01-28T19:08:59.871Z,102755.56
2023-01-28T19:11:29.146Z,102745.84
2023-01-28T19:13:56.885Z,102758.09
2023-01-28T19:16:23.764Z,102746.63
2023-01-28T19:18:55.113Z,102743.19
2023-01-28T19:21:22.904Z,102743.19
2023-01-28T19:24:01.663Z,102750.09
2023-01-28T19:26:30.350Z,102752.69
2023-01-28T19:28:57.099Z,102738.75
2023-01-28T19:31:25.116Z,102743.91
2023-01-28T19:33:57.092Z,102744.81
2023-01-28T19:36:26.180Z,102745.59
2023-01-28T19:38:56.362Z,102744.75
2023-01-28T19:41:22.941Z,102752.59
2023-01-28T19:43:49.344Z,102752.53
2023-01-28T19:46:17.610Z,102754.22
2023-01-28T19:48:45.365Z,102758.56
2023-01-28T19:51:12.965Z,102760.28
2023-01-28T19:53:40.605Z,102775.97
2023-01-28T19:56:10.691Z,102772.56
2023-01-28T19:58:39.949Z,102766.28
2023-01-28T20:01:08.491Z,102766.28
2023-01-28T20:03:35.657Z,102765.44
2023-01-28T20:06:03.841Z,102773.28
2023-01-28T20:08:30.536Z,102780.19
2023-01-28T20:11:08.750Z,102774.00
2023-01-28T20:13:36.437Z,102774.88
2023-01-28T20:16:07.544Z,102765.25
2023-01-28T20:18:35.297Z,102765.22
2023-01-28T20:21:01.926Z,102768.69
2023-01-28T20:23:28.457Z,102762.56
2023-01-28T20:25:58.605Z,102757.16
2023-01-28T20:28:25.373Z,102757.16
2023-01-28T20:30:53.527Z,102743.13
2023-01-28T20:33:20.716Z,102737.06
2023-01-28T20:35:47.065Z,102750.13
2023-01-28T20:38:14.529Z,102743.09
2023-01-28T20:40:42.270Z,102744.81
2023-01-28T20:43:09.462Z,102743.88
2023-01-28T20:45:35.838Z,102729.94
2023-01-28T20:48:02.386Z,102735.16
2023-01-28T20:50:28.733Z,102718.59
2023-01-28T20:52:55.141Z,102708.09
2023-01-28T20:55:21.571Z,102707.19
2023-01-28T20:57:48.366Z,102701.97
2023-01-28T21:00:15.555Z,102709.03
2023-01-28T21:02:44.176Z,102709.81
2023-01-28T21:05:10.690Z,102713.34
2023-01-28T21:07:37.359Z,102710.75
2023-01-28T21:10:04.834Z,102710.66
2023-01-28T21:12:31.387Z,102709.69
2023-01-28T21:14:57.872Z,102711.50
2023-01-28T21:17:25.352Z,102702.75
2023-01-28T21:19:52.094Z,102704.44
2023-01-28T21:22:19.978Z,102703.69
2023-01-28T21:24:48.736Z,102700.97
2023-01-28T21:27:15.082Z,102696.59
2023-01-28T21:29:41.955Z,102697.59
2023-01-28T21:32:08.494Z,102701.91
2023-01-28T21:34:34.903Z,102701.09
2023-01-28T21:37:01.217Z,102702.72
2023-01-28T21:39:27.554Z,102703.59
2023-01-28T21:41:54.107Z,102712.28
2023-01-28T21:44:20.466Z,102710.50
2023-01-28T21:46:46.943Z,102709.69
2023-01-28T21:49:13.312Z,102702.72
2023-01-28T21:51:39.906Z,102701.00
2023-01-28T21:54:11.347Z,102713.28
2023-01-28T21:56:37.790Z,102714.19
2023-01-28T21:59:23.311Z,102713.44
2023-01-28T22:01:49.755Z,102719.63
2023-01-28T22:04:16.197Z,102722.31
2023-01-28T22:06:42.936Z,102724.97
2023-01-28T22:09:13.521Z,102717.00
2023-01-28T22:11:41.311Z,102719.53
2023-01-28T22:14:08.199Z,102716.84
2023-01-28T22:16:34.568Z,102714.94
2023-01-28T22:19:01.008Z,102724.47
2023-01-28T22:21:27.987Z,102727.06
2023-01-28T22:23:54.451Z,102725.25
2023-01-28T22:26:20.863Z,102735.72
2023-01-28T22:28:47.227Z,102742.69
2023-01-28T22:31:16.256Z,102742.59
2023-01-28T22:33:43.774Z,102733.88
2023-01-28T22:36:15.593Z,102733.88
2023-01-28T22:38:43.600Z,102733.88
2023-01-28T22:41:13.349Z,102739.94
2023-01-28T22:43:40.826Z,102737.59
2023-01-28T22:46:07.650Z,102729.75
2023-01-28T22:48:37.083Z,102737.69
2023-01-28T22:51:09.276Z,102730.69
2023-01-28T22:53:35.652Z,102724.63
2023-01-28T22:56:02.652Z,102718.56
2023-01-28T22:58:31.509Z,102708.06
2023-01-28T23:00:58.503Z,102715.97
2023-01-28T23:03:25.522Z,102710.72
2023-01-28T23:05:52.228Z,102704.72
2023-01-28T23:08:18.763Z,102702.22
2023-01-28T23:10:49.977Z,102702.28
2023-01-28T23:13:18.391Z,102695.22
2023-01-28T23:16:04.360Z,102687.28
2023-01-28T23:18:49.041Z,102687.22
2023-01-28T23:21:36.816Z,102691.53
2023-01-28T23:24:19.451Z,102695.91
2023-01-28T23:26:54.247Z,102702.09
2023-01-28T23:29:24.997Z,102697.81
2023-01-28T23:32:01.198Z,102691.66
2023-01-28T23:34:31.658Z,102695.94
2023-01-28T23:36:58.480Z,102694.16
2023-01-28T23:39:24.812Z,102678.41
2023-01-28T23:41:51.146Z,102691.44
2023-01-28T23:44:18.481Z,102685.19
2023-01-28T23:46:44.933Z,102670.16
2023-01-28T23:49:11.277Z,102665.72
2023-01-28T23:51:37.596Z,102663.06
2023-01-28T23:54:04.050Z,102661.34
2023-01-28T23:56:30.381Z,102662.19
2023-01-28T23:58:56.850Z,102670.03
